sensor_id;sensor_type;location;lat;lon;timestamp;P1;durP1;ratioP1;P2;durP2;ratioP2
45128;SDS011;35512;56.312;101.728;2022-12-20T00:02:14;0.80;;;0.80;;
45128;SDS011;35512;56.312;101.728;2022-12-20T00:04:43;0.80;;;0.80;;
45128;SDS011;35512;56.312;101.728;2022-12-20T00:07:13;0.80;;;0.80;;
45128;SDS011;35512;56.312;101.728;2022-12-20T00:09:42;0.80;;;0.80;;
45128;SDS011;35512;56.312;101.728;2022-12-20T00:12:10;0.80;;;0.80;;
45128;SDS011;35512;56.312;101.728;2022-12-20T00:14:39;0.80;;;0.80;;
45128;SDS011;35512;56.312;101.728;2022-12-20T00:17:08;0.80;;;0.80;;
45128;SDS011;35512;56.312;101.728;2022-12-20T00:19:37;0.80;;;0.80;;
45128;SDS011;35512;56.312;101.728;2022-12-20T00:22:06;0.80;;;0.80;;
45128;SDS011;35512;56.312;101.728;2022-12-20T00:24:35;0.80;;;0.80;;
45128;SDS011;35512;56.312;101.728;2022-12-20T00:27:04;0.80;;;0.80;;
45128;SDS011;35512;56.312;101.728;2022-12-20T00:29:33;0.80;;;0.80;;
45128;SDS011;35512;56.312;101.728;2022-12-20T00:32:02;0.80;;;0.80;;
45128;SDS011;35512;56.312;101.728;2022-12-20T00:34:31;0.80;;;0.80;;
45128;SDS011;35512;56.312;101.728;2022-12-20T00:37:02;0.80;;;0.80;;
45128;SDS011;35512;56.312;101.728;2022-12-20T00:39:33;0.80;;;0.80;;
45128;SDS011;35512;56.312;101.728;2022-12-20T00:42:02;0.80;;;0.80;;
45128;SDS011;35512;56.312;101.728;2022-12-20T00:44:31;0.80;;;0.80;;
45128;SDS011;35512;56.312;101.728;2022-12-20T00:47:00;0.80;;;0.80;;
45128;SDS011;35512;56.312;101.728;2022-12-20T00:49:29;0.80;;;0.80;;
45128;SDS011;35512;56.312;101.728;2022-12-20T00:51:58;0.80;;;0.80;;
45128;SDS011;35512;56.312;101.728;2022-12-20T00:54:27;0.80;;;0.80;;
45128;SDS011;35512;56.312;101.728;2022-12-20T00:56:55;0.80;;;0.80;;
45128;SDS011;35512;56.312;101.728;2022-12-20T00:59:24;0.80;;;0.80;;
45128;SDS011;35512;56.312;101.728;2022-12-20T01:01:55;0.80;;;0.80;;
45128;SDS011;35512;56.312;101.728;2022-12-20T01:04:25;0.80;;;0.80;;
45128;SDS011;35512;56.312;101.728;2022-12-20T01:06:54;0.80;;;0.80;;
45128;SDS011;35512;56.312;101.728;2022-12-20T01:09:23;0.80;;;0.80;;
45128;SDS011;35512;56.312;101.728;2022-12-20T01:11:52;0.80;;;0.80;;
45128;SDS011;35512;56.312;101.728;2022-12-20T01:14:22;0.80;;;0.80;;
45128;SDS011;35512;56.312;101.728;2022-12-20T01:16:51;0.80;;;0.80;;
45128;SDS011;35512;56.312;101.728;2022-12-20T01:19:20;0.80;;;0.80;;
45128;SDS011;35512;56.312;101.728;2022-12-20T01:21:49;0.80;;;0.80;;
45128;SDS011;35512;56.312;101.728;2022-12-20T01:24:18;0.80;;;0.80;;
45128;SDS011;35512;56.312;101.728;2022-12-20T01:26:48;0.80;;;0.80;;
45128;SDS011;35512;56.312;101.728;2022-12-20T01:29:17;0.80;;;0.80;;
45128;SDS011;35512;56.312;101.728;2022-12-20T01:31:46;0.80;;;0.80;;
45128;SDS011;35512;56.312;101.728;2022-12-20T01:34:15;0.80;;;0.80;;
45128;SDS011;35512;56.312;101.728;2022-12-20T01:36:45;0.80;;;0.80;;
45128;SDS011;35512;56.312;101.728;2022-12-20T01:39:14;0.80;;;0.80;;
45128;SDS011;35512;56.312;101.728;2022-12-20T01:41:44;0.80;;;0.80;;
45128;SDS011;35512;56.312;101.728;2022-12-20T01:46:46;0.80;;;0.80;;
45128;SDS011;35512;56.312;101.728;2022-12-20T01:52:04;0.80;;;0.80;;
45128;SDS011;35512;56.312;101.728;2022-12-20T01:54:42;0.90;;;0.90;;
45128;SDS011;35512;56.312;101.728;2022-12-20T01:57:24;0.80;;;0.80;;
45128;SDS011;35512;56.312;101.728;2022-12-20T02:00:03;0.80;;;0.80;;
45128;SDS011;35512;56.312;101.728;2022-12-20T02:02:40;0.80;;;0.80;;
45128;SDS011;35512;56.312;101.728;2022-12-20T02:05:11;0.80;;;0.80;;
45128;SDS011;35512;56.312;101.728;2022-12-20T02:07:44;0.80;;;0.80;;
45128;SDS011;35512;56.312;101.728;2022-12-20T02:10:17;0.90;;;0.90;;
45128;SDS011;35512;56.312;101.728;2022-12-20T02:12:48;0.80;;;0.80;;
45128;SDS011;35512;56.312;101.728;2022-12-20T02:15:46;0.90;;;0.90;;
45128;SDS011;35512;56.312;101.728;2022-12-20T02:21:49;0.80;;;0.80;;
45128;SDS011;35512;56.312;101.728;2022-12-20T02:26:40;0.80;;;0.80;;
45128;SDS011;35512;56.312;101.728;2022-12-20T02:29:25;0.80;;;0.80;;
45128;SDS011;35512;56.312;101.728;2022-12-20T02:34:32;0.80;;;0.80;;
45128;SDS011;35512;56.312;101.728;2022-12-20T02:37:05;0.80;;;0.80;;
45128;SDS011;35512;56.312;101.728;2022-12-20T02:39:35;0.80;;;0.80;;
45128;SDS011;35512;56.312;101.728;2022-12-20T02:42:07;0.80;;;0.80;;
45128;SDS011;35512;56.312;101.728;2022-12-20T02:44:40;0.80;;;0.80;;
45128;SDS011;35512;56.312;101.728;2022-12-20T02:47:33;0.80;;;0.80;;
45128;SDS011;35512;56.312;101.728;2022-12-20T02:50:10;0.80;;;0.80;;
45128;SDS011;35512;56.312;101.728;2022-12-20T02:52:40;0.80;;;0.80;;
45128;SDS011;35512;56.312;101.728;2022-12-20T02:55:09;0.80;;;0.80;;
45128;SDS011;35512;56.312;101.728;2022-12-20T02:57:54;0.80;;;0.80;;
45128;SDS011;35512;56.312;101.728;2022-12-20T03:00:33;0.80;;;0.80;;
45128;SDS011;35512;56.312;101.728;2022-12-20T03:03:08;0.80;;;0.80;;
45128;SDS011;35512;56.312;101.728;2022-12-20T03:05:53;0.80;;;0.80;;
45128;SDS011;35512;56.312;101.728;2022-12-20T03:08:23;0.80;;;0.80;;
45128;SDS011;35512;56.312;101.728;2022-12-20T03:10:53;0.80;;;0.80;;
45128;SDS011;35512;56.312;101.728;2022-12-20T03:13:23;0.80;;;0.80;;
45128;SDS011;35512;56.312;101.728;2022-12-20T03:15:58;0.80;;;0.80;;
45128;SDS011;35512;56.312;101.728;2022-12-20T03:18:28;0.80;;;0.80;;
45128;SDS011;35512;56.312;101.728;2022-12-20T03:20:57;0.80;;;0.80;;
45128;SDS011;35512;56.312;101.728;2022-12-20T03:23:26;0.80;;;0.80;;
45128;SDS011;35512;56.312;101.728;2022-12-20T03:25:55;0.80;;;0.80;;
45128;SDS011;35512;56.312;101.728;2022-12-20T03:31:00;0.75;;;0.75;;
45128;SDS011;35512;56.312;101.728;2022-12-20T03:33:34;0.90;;;0.90;;
45128;SDS011;35512;56.312;101.728;2022-12-20T03:36:07;0.80;;;0.80;;
45128;SDS011;35512;56.312;101.728;2022-12-20T03:38:36;0.80;;;0.80;;
45128;SDS011;35512;56.312;101.728;2022-12-20T03:41:07;0.80;;;0.80;;
45128;SDS011;35512;56.312;101.728;2022-12-20T03:43:37;0.80;;;0.80;;
45128;SDS011;35512;56.312;101.728;2022-12-20T03:46:07;0.80;;;0.80;;
45128;SDS011;35512;56.312;101.728;2022-12-20T03:48:37;0.80;;;0.80;;
45128;SDS011;35512;56.312;101.728;2022-12-20T03:51:08;0.80;;;0.80;;
45128;SDS011;35512;56.312;101.728;2022-12-20T03:53:38;0.80;;;0.80;;
45128;SDS011;35512;56.312;101.728;2022-12-20T03:56:08;0.80;;;0.80;;
45128;SDS011;35512;56.312;101.728;2022-12-20T03:58:38;0.80;;;0.80;;
45128;SDS011;35512;56.312;101.728;2022-12-20T04:01:29;0.80;;;0.80;;
45128;SDS011;35512;56.312;101.728;2022-12-20T04:03:59;0.80;;;0.80;;
45128;SDS011;35512;56.312;101.728;2022-12-20T04:06:28;0.80;;;0.80;;
45128;SDS011;35512;56.312;101.728;2022-12-20T04:08:57;0.80;;;0.80;;
45128;SDS011;35512;56.312;101.728;2022-12-20T04:11:32;0.80;;;0.80;;
45128;SDS011;35512;56.312;101.728;2022-12-20T04:14:08;0.80;;;0.80;;
45128;SDS011;35512;56.312;101.728;2022-12-20T04:16:37;0.80;;;0.80;;
45128;SDS011;35512;56.312;101.728;2022-12-20T04:19:08;0.80;;;0.80;;
45128;SDS011;35512;56.312;101.728;2022-12-20T04:21:42;0.80;;;0.80;;
45128;SDS011;35512;56.312;101.728;2022-12-20T04:24:13;0.80;;;0.80;;
45128;SDS011;35512;56.312;101.728;2022-12-20T04:26:53;0.80;;;0.80;;
45128;SDS011;35512;56.312;101.728;2022-12-20T04:29:22;0.80;;;0.80;;
45128;SDS011;35512;56.312;101.728;2022-12-20T04:31:51;0.80;;;0.80;;
45128;SDS011;35512;56.312;101.728;2022-12-20T04:34:21;0.80;;;0.80;;
45128;SDS011;35512;56.312;101.728;2022-12-20T04:36:51;0.80;;;0.80;;
45128;SDS011;35512;56.312;101.728;2022-12-20T04:39:34;0.80;;;0.80;;
45128;SDS011;35512;56.312;101.728;2022-12-20T04:42:17;0.70;;;0.70;;
45128;SDS011;35512;56.312;101.728;2022-12-20T04:44:48;0.70;;;0.70;;
45128;SDS011;35512;56.312;101.728;2022-12-20T04:47:22;0.80;;;0.80;;
45128;SDS011;35512;56.312;101.728;2022-12-20T04:49:52;0.70;;;0.70;;
45128;SDS011;35512;56.312;101.728;2022-12-20T04:52:21;0.80;;;0.80;;
45128;SDS011;35512;56.312;101.728;2022-12-20T04:55:14;0.80;;;0.80;;
45128;SDS011;35512;56.312;101.728;2022-12-20T04:57:44;0.70;;;0.70;;
45128;SDS011;35512;56.312;101.728;2022-12-20T05:00:14;0.70;;;0.70;;
45128;SDS011;35512;56.312;101.728;2022-12-20T05:02:50;0.80;;;0.80;;
45128;SDS011;35512;56.312;101.728;2022-12-20T05:05:22;0.70;;;0.70;;
45128;SDS011;35512;56.312;101.728;2022-12-20T05:07:53;0.70;;;0.70;;
45128;SDS011;35512;56.312;101.728;2022-12-20T05:10:23;0.80;;;0.80;;
45128;SDS011;35512;56.312;101.728;2022-12-20T05:12:54;0.70;;;0.70;;
45128;SDS011;35512;56.312;101.728;2022-12-20T05:15:34;0.80;;;0.80;;
45128;SDS011;35512;56.312;101.728;2022-12-20T05:18:03;0.77;;;0.77;;
45128;SDS011;35512;56.312;101.728;2022-12-20T05:20:47;0.80;;;0.80;;
45128;SDS011;35512;56.312;101.728;2022-12-20T05:23:38;0.70;;;0.70;;
45128;SDS011;35512;56.312;101.728;2022-12-20T05:26:28;0.73;;;0.73;;
45128;SDS011;35512;56.312;101.728;2022-12-20T05:29:00;0.80;;;0.80;;
45128;SDS011;35512;56.312;101.728;2022-12-20T05:31:29;0.80;;;0.80;;
45128;SDS011;35512;56.312;101.728;2022-12-20T05:33:59;0.70;;;0.70;;
45128;SDS011;35512;56.312;101.728;2022-12-20T05:36:31;0.80;;;0.80;;
45128;SDS011;35512;56.312;101.728;2022-12-20T05:39:02;0.70;;;0.70;;
45128;SDS011;35512;56.312;101.728;2022-12-20T05:41:37;0.80;;;0.80;;
45128;SDS011;35512;56.312;101.728;2022-12-20T05:44:07;0.80;;;0.80;;
45128;SDS011;35512;56.312;101.728;2022-12-20T05:46:40;0.70;;;0.70;;
45128;SDS011;35512;56.312;101.728;2022-12-20T05:49:15;0.70;;;0.70;;
45128;SDS011;35512;56.312;101.728;2022-12-20T05:51:44;0.80;;;0.80;;
45128;SDS011;35512;56.312;101.728;2022-12-20T05:54:24;0.70;;;0.70;;
45128;SDS011;35512;56.312;101.728;2022-12-20T05:57:07;0.77;;;0.77;;
45128;SDS011;35512;56.312;101.728;2022-12-20T05:59:38;0.80;;;0.80;;
45128;SDS011;35512;56.312;101.728;2022-12-20T06:04:47;0.80;;;0.80;;
45128;SDS011;35512;56.312;101.728;2022-12-20T06:07:19;0.80;;;0.80;;
45128;SDS011;35512;56.312;101.728;2022-12-20T06:09:53;0.80;;;0.80;;
45128;SDS011;35512;56.312;101.728;2022-12-20T06:12:29;0.80;;;0.80;;
45128;SDS011;35512;56.312;101.728;2022-12-20T06:14:58;0.80;;;0.80;;
45128;SDS011;35512;56.312;101.728;2022-12-20T06:17:30;0.80;;;0.80;;
45128;SDS011;35512;56.312;101.728;2022-12-20T06:20:00;0.80;;;0.80;;
45128;SDS011;35512;56.312;101.728;2022-12-20T06:22:29;0.80;;;0.80;;
45128;SDS011;35512;56.312;101.728;2022-12-20T06:24:59;0.70;;;0.70;;
45128;SDS011;35512;56.312;101.728;2022-12-20T06:27:31;0.80;;;0.80;;
45128;SDS011;35512;56.312;101.728;2022-12-20T06:30:20;0.80;;;0.80;;
45128;SDS011;35512;56.312;101.728;2022-12-20T06:33:00;0.77;;;0.77;;
45128;SDS011;35512;56.312;101.728;2022-12-20T06:35:30;0.80;;;0.80;;
45128;SDS011;35512;56.312;101.728;2022-12-20T06:38:00;0.80;;;0.80;;
45128;SDS011;35512;56.312;101.728;2022-12-20T06:40:32;0.80;;;0.80;;
45128;SDS011;35512;56.312;101.728;2022-12-20T06:43:01;0.80;;;0.80;;
45128;SDS011;35512;56.312;101.728;2022-12-20T06:45:30;0.80;;;0.80;;
45128;SDS011;35512;56.312;101.728;2022-12-20T06:48:08;0.80;;;0.80;;
45128;SDS011;35512;56.312;101.728;2022-12-20T06:50:38;0.80;;;0.80;;
45128;SDS011;35512;56.312;101.728;2022-12-20T06:53:08;0.80;;;0.80;;
45128;SDS011;35512;56.312;101.728;2022-12-20T06:55:37;0.80;;;0.80;;
45128;SDS011;35512;56.312;101.728;2022-12-20T06:58:06;0.80;;;0.80;;
45128;SDS011;35512;56.312;101.728;2022-12-20T07:00:38;0.80;;;0.80;;
45128;SDS011;35512;56.312;101.728;2022-12-20T07:03:07;0.80;;;0.80;;
45128;SDS011;35512;56.312;101.728;2022-12-20T07:05:36;0.80;;;0.80;;
45128;SDS011;35512;56.312;101.728;2022-12-20T07:08:06;0.80;;;0.80;;
45128;SDS011;35512;56.312;101.728;2022-12-20T07:10:36;0.80;;;0.80;;
45128;SDS011;35512;56.312;101.728;2022-12-20T07:13:05;0.80;;;0.80;;
45128;SDS011;35512;56.312;101.728;2022-12-20T07:15:34;0.75;;;0.75;;
45128;SDS011;35512;56.312;101.728;2022-12-20T07:18:03;0.80;;;0.80;;
45128;SDS011;35512;56.312;101.728;2022-12-20T07:20:32;0.80;;;0.80;;
45128;SDS011;35512;56.312;101.728;2022-12-20T07:23:01;0.80;;;0.80;;
45128;SDS011;35512;56.312;101.728;2022-12-20T07:25:30;0.80;;;0.80;;
45128;SDS011;35512;56.312;101.728;2022-12-20T07:27:59;0.80;;;0.80;;
45128;SDS011;35512;56.312;101.728;2022-12-20T07:30:28;0.80;;;0.80;;
45128;SDS011;35512;56.312;101.728;2022-12-20T07:32:59;0.80;;;0.80;;
45128;SDS011;35512;56.312;101.728;2022-12-20T07:35:27;0.80;;;0.80;;
45128;SDS011;35512;56.312;101.728;2022-12-20T07:37:56;0.80;;;0.80;;
45128;SDS011;35512;56.312;101.728;2022-12-20T07:40:25;0.80;;;0.80;;
45128;SDS011;35512;56.312;101.728;2022-12-20T07:42:54;0.80;;;0.80;;
45128;SDS011;35512;56.312;101.728;2022-12-20T07:45:23;0.80;;;0.80;;
45128;SDS011;35512;56.312;101.728;2022-12-20T07:47:52;0.80;;;0.80;;
45128;SDS011;35512;56.312;101.728;2022-12-20T07:50:21;0.80;;;0.80;;
45128;SDS011;35512;56.312;101.728;2022-12-20T07:52:51;0.80;;;0.80;;
45128;SDS011;35512;56.312;101.728;2022-12-20T07:55:21;0.80;;;0.80;;
45128;SDS011;35512;56.312;101.728;2022-12-20T07:57:55;0.80;;;0.80;;
45128;SDS011;35512;56.312;101.728;2022-12-20T08:00:27;0.80;;;0.80;;
45128;SDS011;35512;56.312;101.728;2022-12-20T08:05:54;0.80;;;0.80;;
45128;SDS011;35512;56.312;101.728;2022-12-20T08:08:25;0.80;;;0.80;;
45128;SDS011;35512;56.312;101.728;2022-12-20T08:10:54;0.80;;;0.80;;
45128;SDS011;35512;56.312;101.728;2022-12-20T08:13:23;0.80;;;0.80;;
45128;SDS011;35512;56.312;101.728;2022-12-20T08:15:52;0.80;;;0.80;;
45128;SDS011;35512;56.312;101.728;2022-12-20T08:18:22;0.93;;;0.90;;
45128;SDS011;35512;56.312;101.728;2022-12-20T08:20:51;0.90;;;0.90;;
45128;SDS011;35512;56.312;101.728;2022-12-20T08:23:20;0.90;;;0.90;;
45128;SDS011;35512;56.312;101.728;2022-12-20T08:25:52;0.90;;;0.90;;
45128;SDS011;35512;56.312;101.728;2022-12-20T08:28:20;0.88;;;0.88;;
45128;SDS011;35512;56.312;101.728;2022-12-20T08:30:51;1.00;;;0.90;;
45128;SDS011;35512;56.312;101.728;2022-12-20T08:33:19;1.00;;;0.90;;
45128;SDS011;35512;56.312;101.728;2022-12-20T08:35:55;1.00;;;0.90;;
45128;SDS011;35512;56.312;101.728;2022-12-20T08:38:26;1.00;;;0.90;;
45128;SDS011;35512;56.312;101.728;2022-12-20T08:41:05;0.90;;;0.90;;
45128;SDS011;35512;56.312;101.728;2022-12-20T08:43:38;1.00;;;0.90;;
45128;SDS011;35512;56.312;101.728;2022-12-20T08:46:08;1.00;;;0.90;;
45128;SDS011;35512;56.312;101.728;2022-12-20T08:48:39;1.00;;;0.90;;
45128;SDS011;35512;56.312;101.728;2022-12-20T08:51:08;1.00;;;0.90;;
45128;SDS011;35512;56.312;101.728;2022-12-20T08:53:38;1.00;;;0.90;;
45128;SDS011;35512;56.312;101.728;2022-12-20T08:56:11;1.00;;;0.90;;
45128;SDS011;35512;56.312;101.728;2022-12-20T08:58:42;1.00;;;0.90;;
45128;SDS011;35512;56.312;101.728;2022-12-20T09:01:14;1.00;;;0.90;;
45128;SDS011;35512;56.312;101.728;2022-12-20T09:03:46;1.00;;;0.90;;
45128;SDS011;35512;56.312;101.728;2022-12-20T09:06:17;1.00;;;0.90;;
45128;SDS011;35512;56.312;101.728;2022-12-20T09:08:47;1.10;;;1.00;;
45128;SDS011;35512;56.312;101.728;2022-12-20T09:11:19;1.02;;;0.93;;
45128;SDS011;35512;56.312;101.728;2022-12-20T09:13:53;1.00;;;0.90;;
45128;SDS011;35512;56.312;101.728;2022-12-20T09:16:25;1.00;;;0.90;;
45128;SDS011;35512;56.312;101.728;2022-12-20T09:18:57;1.10;;;1.00;;
45128;SDS011;35512;56.312;101.728;2022-12-20T09:24:01;1.00;;;0.90;;
45128;SDS011;35512;56.312;101.728;2022-12-20T09:26:30;1.10;;;1.00;;
45128;SDS011;35512;56.312;101.728;2022-12-20T09:29:00;1.10;;;1.00;;
45128;SDS011;35512;56.312;101.728;2022-12-20T09:31:29;1.10;;;1.00;;
45128;SDS011;35512;56.312;101.728;2022-12-20T09:33:58;1.10;;;1.00;;
45128;SDS011;35512;56.312;101.728;2022-12-20T09:36:28;1.10;;;0.90;;
45128;SDS011;35512;56.312;101.728;2022-12-20T09:38:58;1.10;;;1.00;;
45128;SDS011;35512;56.312;101.728;2022-12-20T09:43:59;1.10;;;1.00;;
45128;SDS011;35512;56.312;101.728;2022-12-20T09:46:33;1.20;;;1.10;;
45128;SDS011;35512;56.312;101.728;2022-12-20T09:49:03;1.10;;;1.00;;
45128;SDS011;35512;56.312;101.728;2022-12-20T09:51:40;1.10;;;1.00;;
45128;SDS011;35512;56.312;101.728;2022-12-20T09:59:43;1.10;;;1.00;;
45128;SDS011;35512;56.312;101.728;2022-12-20T10:02:20;1.10;;;1.00;;
45128;SDS011;35512;56.312;101.728;2022-12-20T10:05:32;1.30;;;1.10;;
45128;SDS011;35512;56.312;101.728;2022-12-20T10:08:16;1.10;;;1.00;;
45128;SDS011;35512;56.312;101.728;2022-12-20T10:10:55;1.10;;;1.00;;
45128;SDS011;35512;56.312;101.728;2022-12-20T10:13:49;1.10;;;1.00;;
45128;SDS011;35512;56.312;101.728;2022-12-20T10:16:40;1.20;;;1.00;;
45128;SDS011;35512;56.312;101.728;2022-12-20T10:24:30;1.10;;;1.00;;
45128;SDS011;35512;56.312;101.728;2022-12-20T10:27:15;1.25;;;1.00;;
45128;SDS011;35512;56.312;101.728;2022-12-20T10:29:48;1.25;;;1.10;;
45128;SDS011;35512;56.312;101.728;2022-12-20T10:32:19;1.10;;;1.00;;
45128;SDS011;35512;56.312;101.728;2022-12-20T10:37:37;1.20;;;1.00;;
45128;SDS011;35512;56.312;101.728;2022-12-20T10:40:37;1.20;;;1.10;;
45128;SDS011;35512;56.312;101.728;2022-12-20T10:43:27;1.10;;;1.00;;
45128;SDS011;35512;56.312;101.728;2022-12-20T10:46:13;1.15;;;1.00;;
45128;SDS011;35512;56.312;101.728;2022-12-20T10:48:46;1.30;;;1.10;;
45128;SDS011;35512;56.312;101.728;2022-12-20T10:51:19;1.20;;;1.00;;
45128;SDS011;35512;56.312;101.728;2022-12-20T10:53:51;1.30;;;1.10;;
45128;SDS011;35512;56.312;101.728;2022-12-20T10:56:24;1.20;;;1.00;;
45128;SDS011;35512;56.312;101.728;2022-12-20T10:59:03;1.20;;;1.10;;
45128;SDS011;35512;56.312;101.728;2022-12-20T11:01:49;1.23;;;1.02;;
45128;SDS011;35512;56.312;101.728;2022-12-20T11:04:29;1.25;;;1.10;;
45128;SDS011;35512;56.312;101.728;2022-12-20T11:07:02;1.33;;;1.10;;
45128;SDS011;35512;56.312;101.728;2022-12-20T11:09:54;1.20;;;1.00;;
45128;SDS011;35512;56.312;101.728;2022-12-20T11:12:25;1.20;;;1.00;;
45128;SDS011;35512;56.312;101.728;2022-12-20T11:15:08;1.23;;;1.02;;
45128;SDS011;35512;56.312;101.728;2022-12-20T11:18:07;1.38;;;1.10;;
45128;SDS011;35512;56.312;101.728;2022-12-20T11:24:01;1.30;;;1.10;;
45128;SDS011;35512;56.312;101.728;2022-12-20T11:35:28;1.33;;;1.10;;
45128;SDS011;35512;56.312;101.728;2022-12-20T11:40:40;1.40;;;1.10;;
45128;SDS011;35512;56.312;101.728;2022-12-20T11:52:30;1.23;;;1.10;;
45128;SDS011;35512;56.312;101.728;2022-12-20T11:57:43;1.27;;;1.10;;
45128;SDS011;35512;56.312;101.728;2022-12-20T12:00:56;1.38;;;1.10;;
45128;SDS011;35512;56.312;101.728;2022-12-20T12:03:38;1.30;;;1.10;;
45128;SDS011;35512;56.312;101.728;2022-12-20T12:06:15;1.38;;;1.10;;
45128;SDS011;35512;56.312;101.728;2022-12-20T12:08:54;1.48;;;1.20;;
45128;SDS011;35512;56.312;101.728;2022-12-20T12:11:28;1.50;;;1.20;;
45128;SDS011;35512;56.312;101.728;2022-12-20T12:14:32;1.30;;;1.02;;
45128;SDS011;35512;56.312;101.728;2022-12-20T12:17:12;1.40;;;1.10;;
45128;SDS011;35512;56.312;101.728;2022-12-20T12:20:25;1.20;;;1.10;;
45128;SDS011;35512;56.312;101.728;2022-12-20T12:25:46;1.20;;;1.00;;
45128;SDS011;35512;56.312;101.728;2022-12-20T12:28:15;1.30;;;1.10;;
45128;SDS011;35512;56.312;101.728;2022-12-20T12:30:52;1.30;;;1.10;;
45128;SDS011;35512;56.312;101.728;2022-12-20T12:33:29;1.30;;;1.10;;
45128;SDS011;35512;56.312;101.728;2022-12-20T12:36:25;1.30;;;1.10;;
45128;SDS011;35512;56.312;101.728;2022-12-20T12:41:57;1.35;;;1.10;;
45128;SDS011;35512;56.312;101.728;2022-12-20T12:44:56;1.25;;;1.08;;
45128;SDS011;35512;56.312;101.728;2022-12-20T12:47:54;1.35;;;1.10;;
45128;SDS011;35512;56.312;101.728;2022-12-20T12:50:37;1.40;;;1.10;;
45128;SDS011;35512;56.312;101.728;2022-12-20T12:53:20;1.40;;;1.10;;
45128;SDS011;35512;56.312;101.728;2022-12-20T12:55:50;1.42;;;1.10;;
45128;SDS011;35512;56.312;101.728;2022-12-20T12:58:40;1.40;;;1.10;;
45128;SDS011;35512;56.312;101.728;2022-12-20T13:04:10;1.35;;;1.10;;
45128;SDS011;35512;56.312;101.728;2022-12-20T13:06:58;1.20;;;1.10;;
45128;SDS011;35512;56.312;101.728;2022-12-20T13:11:58;1.30;;;1.10;;
45128;SDS011;35512;56.312;101.728;2022-12-20T13:19:52;1.40;;;1.10;;
45128;SDS011;35512;56.312;101.728;2022-12-20T13:22:23;1.35;;;1.10;;
45128;SDS011;35512;56.312;101.728;2022-12-20T13:25:00;1.30;;;1.10;;
45128;SDS011;35512;56.312;101.728;2022-12-20T13:27:40;1.30;;;1.10;;
45128;SDS011;35512;56.312;101.728;2022-12-20T13:40:59;1.50;;;1.20;;
45128;SDS011;35512;56.312;101.728;2022-12-20T13:43:30;1.40;;;1.10;;
45128;SDS011;35512;56.312;101.728;2022-12-20T13:51:27;1.38;;;1.10;;
45128;SDS011;35512;56.312;101.728;2022-12-20T13:53:58;1.30;;;1.10;;
45128;SDS011;35512;56.312;101.728;2022-12-20T13:59:06;1.50;;;1.20;;
45128;SDS011;35512;56.312;101.728;2022-12-20T14:01:51;1.50;;;1.23;;
45128;SDS011;35512;56.312;101.728;2022-12-20T14:04:27;1.40;;;1.10;;
45128;SDS011;35512;56.312;101.728;2022-12-20T14:07:08;1.30;;;1.10;;
45128;SDS011;35512;56.312;101.728;2022-12-20T14:09:46;1.17;;;1.00;;
45128;SDS011;35512;56.312;101.728;2022-12-20T14:12:22;1.30;;;1.10;;
45128;SDS011;35512;56.312;101.728;2022-12-20T14:14:59;1.33;;;1.10;;
45128;SDS011;35512;56.312;101.728;2022-12-20T14:17:30;1.40;;;1.10;;
45128;SDS011;35512;56.312;101.728;2022-12-20T14:22:34;1.30;;;1.10;;
45128;SDS011;35512;56.312;101.728;2022-12-20T14:25:04;1.50;;;1.15;;
45128;SDS011;35512;56.312;101.728;2022-12-20T14:27:35;1.35;;;1.10;;
45128;SDS011;35512;56.312;101.728;2022-12-20T14:30:05;1.40;;;1.10;;
45128;SDS011;35512;56.312;101.728;2022-12-20T14:32:53;1.40;;;1.10;;
45128;SDS011;35512;56.312;101.728;2022-12-20T14:35:23;1.38;;;1.10;;
45128;SDS011;35512;56.312;101.728;2022-12-20T14:37:57;1.40;;;1.10;;
45128;SDS011;35512;56.312;101.728;2022-12-20T14:40:27;1.40;;;1.10;;
45128;SDS011;35512;56.312;101.728;2022-12-20T14:42:57;1.40;;;1.10;;
45128;SDS011;35512;56.312;101.728;2022-12-20T14:45:26;1.40;;;1.10;;
45128;SDS011;35512;56.312;101.728;2022-12-20T14:47:57;1.30;;;1.10;;
45128;SDS011;35512;56.312;101.728;2022-12-20T14:50:34;1.30;;;1.10;;
45128;SDS011;35512;56.312;101.728;2022-12-20T14:53:26;1.30;;;1.10;;
45128;SDS011;35512;56.312;101.728;2022-12-20T14:55:57;1.45;;;1.20;;
45128;SDS011;35512;56.312;101.728;2022-12-20T14:58:27;1.40;;;1.20;;
45128;SDS011;35512;56.312;101.728;2022-12-20T15:01:00;1.40;;;1.10;;
45128;SDS011;35512;56.312;101.728;2022-12-20T15:03:31;1.50;;;1.17;;
45128;SDS011;35512;56.312;101.728;2022-12-20T15:06:01;1.30;;;1.10;;
45128;SDS011;35512;56.312;101.728;2022-12-20T15:08:30;1.40;;;1.10;;
45128;SDS011;35512;56.312;101.728;2022-12-20T15:11:17;1.40;;;1.10;;
45128;SDS011;35512;56.312;101.728;2022-12-20T15:13:51;1.33;;;1.10;;
45128;SDS011;35512;56.312;101.728;2022-12-20T15:16:25;1.40;;;1.10;;
45128;SDS011;35512;56.312;101.728;2022-12-20T15:18:57;1.40;;;1.10;;
45128;SDS011;35512;56.312;101.728;2022-12-20T15:21:36;1.40;;;1.10;;
45128;SDS011;35512;56.312;101.728;2022-12-20T15:24:14;1.27;;;1.10;;
45128;SDS011;35512;56.312;101.728;2022-12-20T15:29:17;1.38;;;1.10;;
45128;SDS011;35512;56.312;101.728;2022-12-20T15:31:48;1.50;;;1.17;;
45128;SDS011;35512;56.312;101.728;2022-12-20T15:37:05;1.40;;;1.10;;
45128;SDS011;35512;56.312;101.728;2022-12-20T15:39:44;1.40;;;1.17;;
45128;SDS011;35512;56.312;101.728;2022-12-20T15:42:14;1.40;;;1.10;;
45128;SDS011;35512;56.312;101.728;2022-12-20T15:44:45;1.48;;;1.10;;
45128;SDS011;35512;56.312;101.728;2022-12-20T15:47:14;1.30;;;1.10;;
45128;SDS011;35512;56.312;101.728;2022-12-20T15:49:44;1.33;;;1.10;;
45128;SDS011;35512;56.312;101.728;2022-12-20T15:52:21;1.40;;;1.10;;
45128;SDS011;35512;56.312;101.728;2022-12-20T15:54:50;1.40;;;1.10;;
45128;SDS011;35512;56.312;101.728;2022-12-20T15:57:21;1.23;;;1.10;;
45128;SDS011;35512;56.312;101.728;2022-12-20T15:59:50;1.40;;;1.10;;
45128;SDS011;35512;56.312;101.728;2022-12-20T16:02:38;1.30;;;1.10;;
45128;SDS011;35512;56.312;101.728;2022-12-20T16:05:09;1.40;;;1.10;;
45128;SDS011;35512;56.312;101.728;2022-12-20T16:07:40;1.40;;;1.10;;
45128;SDS011;35512;56.312;101.728;2022-12-20T16:10:11;1.30;;;1.10;;
45128;SDS011;35512;56.312;101.728;2022-12-20T16:12:42;1.40;;;1.10;;
45128;SDS011;35512;56.312;101.728;2022-12-20T16:15:18;1.40;;;1.10;;
45128;SDS011;35512;56.312;101.728;2022-12-20T16:17:48;1.40;;;1.10;;
45128;SDS011;35512;56.312;101.728;2022-12-20T16:20:17;1.30;;;1.10;;
45128;SDS011;35512;56.312;101.728;2022-12-20T16:22:46;1.30;;;1.10;;
45128;SDS011;35512;56.312;101.728;2022-12-20T16:28:00;1.43;;;1.20;;
45128;SDS011;35512;56.312;101.728;2022-12-20T16:30:29;1.40;;;1.10;;
45128;SDS011;35512;56.312;101.728;2022-12-20T16:32:58;1.30;;;1.10;;
45128;SDS011;35512;56.312;101.728;2022-12-20T16:38:00;1.45;;;1.10;;
45128;SDS011;35512;56.312;101.728;2022-12-20T16:40:29;1.40;;;1.10;;
45128;SDS011;35512;56.312;101.728;2022-12-20T16:43:00;1.30;;;1.10;;
45128;SDS011;35512;56.312;101.728;2022-12-20T16:45:30;1.50;;;1.20;;
45128;SDS011;35512;56.312;101.728;2022-12-20T16:47:59;1.42;;;1.15;;
45128;SDS011;35512;56.312;101.728;2022-12-20T16:50:28;1.40;;;1.10;;
45128;SDS011;35512;56.312;101.728;2022-12-20T16:52:57;1.40;;;1.10;;
45128;SDS011;35512;56.312;101.728;2022-12-20T16:55:26;1.30;;;1.10;;